Riverton, New Zealand
Current Conditions -  °F | °C
As of 2:00 PM on Sunday 23 Nov 2014 (Local Time) from NZCH Reporting Station
Clear Clear  
Wind Chill: 61°   Ceiling: Unl
Heat Index: 61°   Visibility: 6mi
Dew Point: 45°   Wind: 22mph
Humidity: 55%   Direction: 70°ENE
Pressure: 29.97"   Gusts: NA
Location:  46.35°S, 168.01°E
Report Text: NZCH 230100Z AUTO 07019KT 050V110 9999 NCD 16/07 Q1015 NOSIG
Loading
Personal Weather Stations






























Interactive Weather Map New forecast layout! Learn more

10-Day Weather Forecast

Advertisements
Track Severe Weather on mobile